sensor_id;sensor_type;location;lat;lon;timestamp;temperature;humidity
15967;DHT22;15175;48.154;11.534;2022-12-18T00:02:03;-3.10;99.90
15967;DHT22;15175;48.154;11.534;2022-12-18T00:04:30;-3.30;99.90
15967;DHT22;15175;48.154;11.534;2022-12-18T00:06:57;-3.50;99.90
15967;DHT22;15175;48.154;11.534;2022-12-18T00:09:25;-3.50;99.90
15967;DHT22;15175;48.154;11.534;2022-12-18T00:11:52;-3.60;99.90
15967;DHT22;15175;48.154;11.534;2022-12-18T00:14:19;-3.80;99.90
15967;DHT22;15175;48.154;11.534;2022-12-18T00:16:47;-3.80;99.90
15967;DHT22;15175;48.154;11.534;2022-12-18T00:19:14;-3.80;99.90
15967;DHT22;15175;48.154;11.534;2022-12-18T00:21:43;-3.80;99.90
15967;DHT22;15175;48.154;11.534;2022-12-18T00:24:11;-3.70;99.90
15967;DHT22;15175;48.154;11.534;2022-12-18T00:26:39;-3.60;99.90
15967;DHT22;15175;48.154;11.534;2022-12-18T00:29:08;-3.70;99.90
15967;DHT22;15175;48.154;11.534;2022-12-18T00:31:37;-3.60;99.90
15967;DHT22;15175;48.154;11.534;2022-12-18T00:34:06;-3.60;99.90
15967;DHT22;15175;48.154;11.534;2022-12-18T00:36:34;-3.50;99.90
15967;DHT22;15175;48.154;11.534;2022-12-18T00:39:03;-3.40;99.90
15967;DHT22;15175;48.154;11.534;2022-12-18T00:41:30;-3.40;99.90
15967;DHT22;15175;48.154;11.534;2022-12-18T00:44:16;-3.30;99.90
15967;DHT22;15175;48.154;11.534;2022-12-18T00:46:45;-3.40;99.90
15967;DHT22;15175;48.154;11.534;2022-12-18T00:49:14;-3.40;99.90
15967;DHT22;15175;48.154;11.534;2022-12-18T00:51:43;-3.40;99.90
15967;DHT22;15175;48.154;11.534;2022-12-18T00:54:10;-3.40;99.90
15967;DHT22;15175;48.154;11.534;2022-12-18T00:56:38;-3.50;99.90
15967;DHT22;15175;48.154;11.534;2022-12-18T00:59:05;-3.50;99.90
15967;DHT22;15175;48.154;11.534;2022-12-18T01:01:33;-3.40;99.90
15967;DHT22;15175;48.154;11.534;2022-12-18T01:04:00;-3.50;99.90
15967;DHT22;15175;48.154;11.534;2022-12-18T01:06:29;-3.60;99.90
15967;DHT22;15175;48.154;11.534;2022-12-18T01:08:56;-3.50;99.90
15967;DHT22;15175;48.154;11.534;2022-12-18T01:11:23;-3.40;99.90
15967;DHT22;15175;48.154;11.534;2022-12-18T01:13:51;-3.50;99.90
15967;DHT22;15175;48.154;11.534;2022-12-18T01:16:22;-3.50;99.90
15967;DHT22;15175;48.154;11.534;2022-12-18T01:18:52;-3.50;99.90
15967;DHT22;15175;48.154;11.534;2022-12-18T01:21:20;-3.50;99.90
15967;DHT22;15175;48.154;11.534;2022-12-18T01:23:51;-3.50;99.90
15967;DHT22;15175;48.154;11.534;2022-12-18T01:26:18;-3.50;99.90
15967;DHT22;15175;48.154;11.534;2022-12-18T01:28:45;-3.50;99.90
15967;DHT22;15175;48.154;11.534;2022-12-18T01:31:15;-3.60;99.90
15967;DHT22;15175;48.154;11.534;2022-12-18T01:33:43;-3.50;99.90
15967;DHT22;15175;48.154;11.534;2022-12-18T01:36:15;-3.50;99.90
15967;DHT22;15175;48.154;11.534;2022-12-18T01:38:43;-3.50;99.90
15967;DHT22;15175;48.154;11.534;2022-12-18T01:41:12;-3.50;99.90
15967;DHT22;15175;48.154;11.534;2022-12-18T01:43:44;-3.50;99.90
15967;DHT22;15175;48.154;11.534;2022-12-18T01:46:11;-3.40;99.90
15967;DHT22;15175;48.154;11.534;2022-12-18T01:48:39;-3.40;99.90
15967;DHT22;15175;48.154;11.534;2022-12-18T01:51:08;-3.40;99.90
15967;DHT22;15175;48.154;11.534;2022-12-18T01:53:36;-3.60;99.90
15967;DHT22;15175;48.154;11.534;2022-12-18T01:56:04;-3.70;99.90
15967;DHT22;15175;48.154;11.534;2022-12-18T01:58:39;-3.70;99.90
15967;DHT22;15175;48.154;11.534;2022-12-18T02:01:08;-3.80;99.90
15967;DHT22;15175;48.154;11.534;2022-12-18T02:03:35;-3.70;99.90
15967;DHT22;15175;48.154;11.534;2022-12-18T02:06:07;-3.50;99.90
15967;DHT22;15175;48.154;11.534;2022-12-18T02:08:42;-3.70;99.90
15967;DHT22;15175;48.154;11.534;2022-12-18T02:11:20;-3.70;99.90
15967;DHT22;15175;48.154;11.534;2022-12-18T02:13:57;-3.80;99.90
15967;DHT22;15175;48.154;11.534;2022-12-18T02:16:32;-3.90;99.90
15967;DHT22;15175;48.154;11.534;2022-12-18T02:19:14;-3.80;99.90
15967;DHT22;15175;48.154;11.534;2022-12-18T02:21:48;-3.80;99.90
15967;DHT22;15175;48.154;11.534;2022-12-18T02:24:24;-3.80;99.90
15967;DHT22;15175;48.154;11.534;2022-12-18T02:26:59;-3.80;99.90
15967;DHT22;15175;48.154;11.534;2022-12-18T02:29:32;-3.80;99.90
15967;DHT22;15175;48.154;11.534;2022-12-18T02:32:02;-3.80;99.90
15967;DHT22;15175;48.154;11.534;2022-12-18T02:34:32;-3.80;99.90
15967;DHT22;15175;48.154;11.534;2022-12-18T02:37:05;-3.80;99.90
15967;DHT22;15175;48.154;11.534;2022-12-18T02:39:36;-3.90;99.90
15967;DHT22;15175;48.154;11.534;2022-12-18T02:42:05;-3.90;99.90
15967;DHT22;15175;48.154;11.534;2022-12-18T02:44:34;-3.90;99.90
15967;DHT22;15175;48.154;11.534;2022-12-18T02:47:04;-3.90;99.90
15967;DHT22;15175;48.154;11.534;2022-12-18T02:49:36;-3.80;99.90
15967;DHT22;15175;48.154;11.534;2022-12-18T02:52:18;-3.80;99.90
15967;DHT22;15175;48.154;11.534;2022-12-18T02:54:57;-3.70;99.90
15967;DHT22;15175;48.154;11.534;2022-12-18T02:57:34;-3.80;99.90
15967;DHT22;15175;48.154;11.534;2022-12-18T03:00:06;-3.80;99.90
15967;DHT22;15175;48.154;11.534;2022-12-18T03:02:40;-3.80;99.90
15967;DHT22;15175;48.154;11.534;2022-12-18T03:05:15;-3.80;99.90
15967;DHT22;15175;48.154;11.534;2022-12-18T03:07:49;-3.80;99.90
15967;DHT22;15175;48.154;11.534;2022-12-18T03:10:21;-3.80;99.90
15967;DHT22;15175;48.154;11.534;2022-12-18T03:12:56;-3.80;99.90
15967;DHT22;15175;48.154;11.534;2022-12-18T03:15:29;-3.70;99.90
15967;DHT22;15175;48.154;11.534;2022-12-18T03:18:08;-3.80;99.90
15967;DHT22;15175;48.154;11.534;2022-12-18T03:20:40;-3.80;99.90
15967;DHT22;15175;48.154;11.534;2022-12-18T03:23:11;-3.80;99.90
15967;DHT22;15175;48.154;11.534;2022-12-18T03:25:46;-3.80;99.90
15967;DHT22;15175;48.154;11.534;2022-12-18T03:28:19;-3.80;99.90
15967;DHT22;15175;48.154;11.534;2022-12-18T03:30:55;-3.80;99.90
15967;DHT22;15175;48.154;11.534;2022-12-18T03:33:26;-3.80;99.90
15967;DHT22;15175;48.154;11.534;2022-12-18T03:35:55;-3.80;99.90
15967;DHT22;15175;48.154;11.534;2022-12-18T03:38:22;-3.80;99.90
15967;DHT22;15175;48.154;11.534;2022-12-18T03:40:58;-3.70;99.90
15967;DHT22;15175;48.154;11.534;2022-12-18T03:43:38;-3.70;99.90
15967;DHT22;15175;48.154;11.534;2022-12-18T03:46:16;-3.70;99.90
15967;DHT22;15175;48.154;11.534;2022-12-18T03:48:55;-3.70;99.90
15967;DHT22;15175;48.154;11.534;2022-12-18T03:51:26;-3.70;99.90
15967;DHT22;15175;48.154;11.534;2022-12-18T03:53:58;-3.70;99.90
15967;DHT22;15175;48.154;11.534;2022-12-18T03:56:31;-3.70;99.90
15967;DHT22;15175;48.154;11.534;2022-12-18T03:59:03;-3.60;99.90
15967;DHT22;15175;48.154;11.534;2022-12-18T04:01:34;-3.80;99.90
15967;DHT22;15175;48.154;11.534;2022-12-18T04:04:03;-3.70;99.90
15967;DHT22;15175;48.154;11.534;2022-12-18T04:06:35;-3.60;99.90
15967;DHT22;15175;48.154;11.534;2022-12-18T04:09:02;-3.60;99.90
15967;DHT22;15175;48.154;11.534;2022-12-18T04:11:34;-3.60;99.90
15967;DHT22;15175;48.154;11.534;2022-12-18T04:14:04;-3.40;99.90
15967;DHT22;15175;48.154;11.534;2022-12-18T04:16:31;-3.50;99.90
15967;DHT22;15175;48.154;11.534;2022-12-18T04:19:01;-3.50;99.90
15967;DHT22;15175;48.154;11.534;2022-12-18T04:21:32;-3.50;99.90
15967;DHT22;15175;48.154;11.534;2022-12-18T04:23:59;-3.60;99.90
15967;DHT22;15175;48.154;11.534;2022-12-18T04:26:27;-3.70;99.90
15967;DHT22;15175;48.154;11.534;2022-12-18T04:29:09;-3.80;99.90
15967;DHT22;15175;48.154;11.534;2022-12-18T04:31:36;-3.80;99.90
15967;DHT22;15175;48.154;11.534;2022-12-18T04:34:04;-3.80;99.90
15967;DHT22;15175;48.154;11.534;2022-12-18T04:36:38;-3.90;99.90
15967;DHT22;15175;48.154;11.534;2022-12-18T04:39:05;-3.80;99.90
15967;DHT22;15175;48.154;11.534;2022-12-18T04:41:33;-3.80;99.90
15967;DHT22;15175;48.154;11.534;2022-12-18T04:44:00;-3.90;99.90
15967;DHT22;15175;48.154;11.534;2022-12-18T04:46:29;-3.90;99.90
15967;DHT22;15175;48.154;11.534;2022-12-18T04:48:56;-3.80;99.90
15967;DHT22;15175;48.154;11.534;2022-12-18T04:51:23;-3.80;99.90
15967;DHT22;15175;48.154;11.534;2022-12-18T04:53:50;-3.70;99.90
15967;DHT22;15175;48.154;11.534;2022-12-18T04:56:17;-3.80;99.90
15967;DHT22;15175;48.154;11.534;2022-12-18T04:58:44;-3.90;99.90
15967;DHT22;15175;48.154;11.534;2022-12-18T05:01:12;-3.90;99.90
15967;DHT22;15175;48.154;11.534;2022-12-18T05:03:41;-3.80;99.90
15967;DHT22;15175;48.154;11.534;2022-12-18T05:06:09;-3.80;99.90
15967;DHT22;15175;48.154;11.534;2022-12-18T05:08:36;-3.80;99.90
15967;DHT22;15175;48.154;11.534;2022-12-18T05:11:04;-3.70;99.90
15967;DHT22;15175;48.154;11.534;2022-12-18T05:13:32;-3.70;99.90
15967;DHT22;15175;48.154;11.534;2022-12-18T05:15:59;-3.80;99.90
15967;DHT22;15175;48.154;11.534;2022-12-18T05:18:27;-3.80;99.90
15967;DHT22;15175;48.154;11.534;2022-12-18T05:20:55;-3.70;99.90
15967;DHT22;15175;48.154;11.534;2022-12-18T05:23:23;-3.60;99.90
15967;DHT22;15175;48.154;11.534;2022-12-18T05:25:51;-3.50;99.90
15967;DHT22;15175;48.154;11.534;2022-12-18T05:28:19;-3.50;99.90
15967;DHT22;15175;48.154;11.534;2022-12-18T05:30:48;-3.50;99.90
15967;DHT22;15175;48.154;11.534;2022-12-18T05:33:16;-3.70;99.90
15967;DHT22;15175;48.154;11.534;2022-12-18T05:35:43;-3.70;99.90
15967;DHT22;15175;48.154;11.534;2022-12-18T05:38:12;-3.70;99.90
15967;DHT22;15175;48.154;11.534;2022-12-18T05:40:41;-3.60;99.90
15967;DHT22;15175;48.154;11.534;2022-12-18T05:43:09;-3.50;99.90
15967;DHT22;15175;48.154;11.534;2022-12-18T05:45:37;-3.50;99.90
15967;DHT22;15175;48.154;11.534;2022-12-18T05:48:04;-3.40;99.90
15967;DHT22;15175;48.154;11.534;2022-12-18T05:50:34;-3.30;99.90
15967;DHT22;15175;48.154;11.534;2022-12-18T05:53:01;-3.30;99.90
15967;DHT22;15175;48.154;11.534;2022-12-18T05:55:33;-3.40;99.90
15967;DHT22;15175;48.154;11.534;2022-12-18T05:58:00;-3.40;99.90
15967;DHT22;15175;48.154;11.534;2022-12-18T06:00:27;-3.40;99.90
15967;DHT22;15175;48.154;11.534;2022-12-18T06:02:54;-3.40;99.90
15967;DHT22;15175;48.154;11.534;2022-12-18T06:05:21;-3.50;99.90
15967;DHT22;15175;48.154;11.534;2022-12-18T06:07:48;-3.50;99.90
15967;DHT22;15175;48.154;11.534;2022-12-18T06:10:15;-3.50;99.90
15967;DHT22;15175;48.154;11.534;2022-12-18T06:12:44;-3.50;99.90
15967;DHT22;15175;48.154;11.534;2022-12-18T06:15:11;-3.50;99.90
15967;DHT22;15175;48.154;11.534;2022-12-18T06:17:38;-3.60;99.90
15967;DHT22;15175;48.154;11.534;2022-12-18T06:20:06;-3.80;99.90
15967;DHT22;15175;48.154;11.534;2022-12-18T06:22:33;-3.70;99.90
15967;DHT22;15175;48.154;11.534;2022-12-18T06:25:01;-3.70;99.90
15967;DHT22;15175;48.154;11.534;2022-12-18T06:27:28;-3.60;99.90
15967;DHT22;15175;48.154;11.534;2022-12-18T06:29:57;-3.80;99.90
15967;DHT22;15175;48.154;11.534;2022-12-18T06:32:24;-4.00;99.90
15967;DHT22;15175;48.154;11.534;2022-12-18T06:34:51;-4.00;99.90
15967;DHT22;15175;48.154;11.534;2022-12-18T06:37:18;-3.90;99.90
15967;DHT22;15175;48.154;11.534;2022-12-18T06:39:45;-3.80;99.90
15967;DHT22;15175;48.154;11.534;2022-12-18T06:42:12;-3.70;99.90
15967;DHT22;15175;48.154;11.534;2022-12-18T06:44:39;-3.70;99.90
15967;DHT22;15175;48.154;11.534;2022-12-18T06:47:08;-3.60;99.90
15967;DHT22;15175;48.154;11.534;2022-12-18T06:49:35;-3.60;99.90
15967;DHT22;15175;48.154;11.534;2022-12-18T06:52:02;-3.60;99.90
15967;DHT22;15175;48.154;11.534;2022-12-18T06:54:29;-3.70;99.90
15967;DHT22;15175;48.154;11.534;2022-12-18T06:56:56;-3.90;99.90
15967;DHT22;15175;48.154;11.534;2022-12-18T06:59:23;-3.90;99.90
15967;DHT22;15175;48.154;11.534;2022-12-18T07:01:50;-3.80;99.90
15967;DHT22;15175;48.154;11.534;2022-12-18T07:04:18;-3.80;99.90
15967;DHT22;15175;48.154;11.534;2022-12-18T07:06:45;-3.70;99.90
15967;DHT22;15175;48.154;11.534;2022-12-18T07:09:12;-3.60;99.90
15967;DHT22;15175;48.154;11.534;2022-12-18T07:11:39;-3.50;99.90
15967;DHT22;15175;48.154;11.534;2022-12-18T07:14:07;-3.50;99.90
15967;DHT22;15175;48.154;11.534;2022-12-18T07:16:34;-3.40;99.90
15967;DHT22;15175;48.154;11.534;2022-12-18T07:19:01;-3.30;99.90
15967;DHT22;15175;48.154;11.534;2022-12-18T07:21:29;-3.30;99.90
15967;DHT22;15175;48.154;11.534;2022-12-18T07:23:56;-3.30;99.90
15967;DHT22;15175;48.154;11.534;2022-12-18T07:26:23;-3.40;99.90
15967;DHT22;15175;48.154;11.534;2022-12-18T07:28:55;-3.40;99.90
15967;DHT22;15175;48.154;11.534;2022-12-18T07:31:23;-3.40;99.90
15967;DHT22;15175;48.154;11.534;2022-12-18T07:33:51;-3.40;99.90
15967;DHT22;15175;48.154;11.534;2022-12-18T07:36:19;-3.40;99.90
15967;DHT22;15175;48.154;11.534;2022-12-18T07:38:51;-3.40;99.90
15967;DHT22;15175;48.154;11.534;2022-12-18T07:41:18;-3.40;99.90
15967;DHT22;15175;48.154;11.534;2022-12-18T07:43:46;-3.40;99.90
15967;DHT22;15175;48.154;11.534;2022-12-18T07:46:14;-3.50;99.90
15967;DHT22;15175;48.154;11.534;2022-12-18T07:48:42;-3.40;99.90
15967;DHT22;15175;48.154;11.534;2022-12-18T07:51:09;-3.40;99.90
15967;DHT22;15175;48.154;11.534;2022-12-18T07:53:36;-3.30;99.90
15967;DHT22;15175;48.154;11.534;2022-12-18T07:56:07;-3.20;99.90
15967;DHT22;15175;48.154;11.534;2022-12-18T07:58:35;-3.30;99.90
15967;DHT22;15175;48.154;11.534;2022-12-18T08:01:03;-3.40;99.90
15967;DHT22;15175;48.154;11.534;2022-12-18T08:03:31;-3.30;99.90
15967;DHT22;15175;48.154;11.534;2022-12-18T08:06:00;-3.20;99.90
15967;DHT22;15175;48.154;11.534;2022-12-18T08:08:27;-3.30;99.90
15967;DHT22;15175;48.154;11.534;2022-12-18T08:10:54;-3.20;99.90
15967;DHT22;15175;48.154;11.534;2022-12-18T08:13:23;-3.10;99.90
15967;DHT22;15175;48.154;11.534;2022-12-18T08:15:56;-3.20;99.90
15967;DHT22;15175;48.154;11.534;2022-12-18T08:18:23;-3.30;99.90
15967;DHT22;15175;48.154;11.534;2022-12-18T08:20:51;-3.20;99.90
15967;DHT22;15175;48.154;11.534;2022-12-18T08:23:18;-3.40;99.90
15967;DHT22;15175;48.154;11.534;2022-12-18T08:25:45;-3.50;99.90
15967;DHT22;15175;48.154;11.534;2022-12-18T08:28:12;-3.60;99.90
15967;DHT22;15175;48.154;11.534;2022-12-18T08:30:41;-3.50;99.90
15967;DHT22;15175;48.154;11.534;2022-12-18T08:33:08;-3.40;99.90
15967;DHT22;15175;48.154;11.534;2022-12-18T08:35:35;-3.60;99.90
15967;DHT22;15175;48.154;11.534;2022-12-18T08:38:03;-3.70;99.90
15967;DHT22;15175;48.154;11.534;2022-12-18T08:40:30;-3.70;99.90
15967;DHT22;15175;48.154;11.534;2022-12-18T08:42:57;-3.70;99.90
15967;DHT22;15175;48.154;11.534;2022-12-18T08:45:43;-3.60;99.90
15967;DHT22;15175;48.154;11.534;2022-12-18T08:48:10;-3.60;99.90
15967;DHT22;15175;48.154;11.534;2022-12-18T08:50:37;-3.60;99.90
15967;DHT22;15175;48.154;11.534;2022-12-18T08:53:04;-3.60;99.90
15967;DHT22;15175;48.154;11.534;2022-12-18T08:55:31;-3.80;99.90
15967;DHT22;15175;48.154;11.534;2022-12-18T08:57:58;-3.90;99.90
15967;DHT22;15175;48.154;11.534;2022-12-18T09:00:25;-3.80;99.90
15967;DHT22;15175;48.154;11.534;2022-12-18T09:02:54;-3.70;99.90
15967;DHT22;15175;48.154;11.534;2022-12-18T09:05:21;-3.60;99.90
15967;DHT22;15175;48.154;11.534;2022-12-18T09:07:48;-3.60;99.90
15967;DHT22;15175;48.154;11.534;2022-12-18T09:10:15;-3.60;99.90
15967;DHT22;15175;48.154;11.534;2022-12-18T09:12:42;-3.50;99.90
15967;DHT22;15175;48.154;11.534;2022-12-18T09:15:10;-3.80;99.90
15967;DHT22;15175;48.154;11.534;2022-12-18T09:17:37;-3.90;99.90
15967;DHT22;15175;48.154;11.534;2022-12-18T09:20:06;-3.90;99.90
15967;DHT22;15175;48.154;11.534;2022-12-18T09:22:34;-4.00;99.90
15967;DHT22;15175;48.154;11.534;2022-12-18T09:25:00;-4.10;99.90
15967;DHT22;15175;48.154;11.534;2022-12-18T09:27:28;-4.00;99.90
15967;DHT22;15175;48.154;11.534;2022-12-18T09:29:55;-3.90;99.90
15967;DHT22;15175;48.154;11.534;2022-12-18T09:32:22;-3.90;99.90
15967;DHT22;15175;48.154;11.534;2022-12-18T09:34:49;-3.90;99.90
15967;DHT22;15175;48.154;11.534;2022-12-18T09:37:17;-3.80;99.90
15967;DHT22;15175;48.154;11.534;2022-12-18T09:39:44;-3.70;99.90
15967;DHT22;15175;48.154;11.534;2022-12-18T09:42:18;-3.60;99.90
15967;DHT22;15175;48.154;11.534;2022-12-18T09:44:50;-3.50;99.90
15967;DHT22;15175;48.154;11.534;2022-12-18T09:47:19;-3.40;99.90
15967;DHT22;15175;48.154;11.534;2022-12-18T09:49:52;-3.40;99.90
15967;DHT22;15175;48.154;11.534;2022-12-18T09:52:25;-3.70;99.90
15967;DHT22;15175;48.154;11.534;2022-12-18T09:54:56;-3.80;99.90
15967;DHT22;15175;48.154;11.534;2022-12-18T09:57:25;-3.80;99.90
15967;DHT22;15175;48.154;11.534;2022-12-18T09:59:56;-3.80;99.90
15967;DHT22;15175;48.154;11.534;2022-12-18T10:02:26;-3.80;99.90
15967;DHT22;15175;48.154;11.534;2022-12-18T10:05:05;-3.80;99.90
15967;DHT22;15175;48.154;11.534;2022-12-18T10:07:41;-3.70;99.90
15967;DHT22;15175;48.154;11.534;2022-12-18T10:10:18;-3.90;99.90
15967;DHT22;15175;48.154;11.534;2022-12-18T10:12:52;-4.10;99.90
15967;DHT22;15175;48.154;11.534;2022-12-18T10:15:26;-4.10;99.90
15967;DHT22;15175;48.154;11.534;2022-12-18T10:17:58;-4.00;99.90
15967;DHT22;15175;48.154;11.534;2022-12-18T10:20:33;-3.90;99.90
15967;DHT22;15175;48.154;11.534;2022-12-18T10:23:08;-3.80;99.90
15967;DHT22;15175;48.154;11.534;2022-12-18T10:25:50;-3.60;99.90
15967;DHT22;15175;48.154;11.534;2022-12-18T10:28:19;-3.50;99.90
15967;DHT22;15175;48.154;11.534;2022-12-18T10:30:47;-3.70;99.90
15967;DHT22;15175;48.154;11.534;2022-12-18T10:33:16;-3.60;99.90
15967;DHT22;15175;48.154;11.534;2022-12-18T10:35:45;-3.60;99.90
15967;DHT22;15175;48.154;11.534;2022-12-18T10:38:26;-3.80;99.90
15967;DHT22;15175;48.154;11.534;2022-12-18T10:40:56;-3.80;99.90
15967;DHT22;15175;48.154;11.534;2022-12-18T10:43:25;-3.70;99.90
15967;DHT22;15175;48.154;11.534;2022-12-18T10:46:14;-3.60;99.90
15967;DHT22;15175;48.154;11.534;2022-12-18T10:48:51;-3.50;99.90
15967;DHT22;15175;48.154;11.534;2022-12-18T10:51:27;-3.50;99.90
15967;DHT22;15175;48.154;11.534;2022-12-18T10:53:59;-3.40;99.90
15967;DHT22;15175;48.154;11.534;2022-12-18T10:56:28;-3.40;99.90
15967;DHT22;15175;48.154;11.534;2022-12-18T10:58:59;-3.30;99.90
15967;DHT22;15175;48.154;11.534;2022-12-18T11:01:27;-3.20;99.90
15967;DHT22;15175;48.154;11.534;2022-12-18T11:04:02;-3.30;99.90
15967;DHT22;15175;48.154;11.534;2022-12-18T11:06:34;-3.30;99.90
15967;DHT22;15175;48.154;11.534;2022-12-18T11:09:21;-3.20;99.90
15967;DHT22;15175;48.154;11.534;2022-12-18T11:11:49;-3.20;99.90
15967;DHT22;15175;48.154;11.534;2022-12-18T11:14:20;-3.30;99.90
15967;DHT22;15175;48.154;11.534;2022-12-18T11:16:49;-3.40;99.90
15967;DHT22;15175;48.154;11.534;2022-12-18T11:19:32;-3.40;99.90
15967;DHT22;15175;48.154;11.534;2022-12-18T11:22:00;-3.40;99.90
15967;DHT22;15175;48.154;11.534;2022-12-18T11:24:31;-3.30;99.90
15967;DHT22;15175;48.154;11.534;2022-12-18T11:27:02;-3.30;99.90
15967;DHT22;15175;48.154;11.534;2022-12-18T11:29:35;-3.20;99.90
15967;DHT22;15175;48.154;11.534;2022-12-18T11:32:34;-3.30;99.90
15967;DHT22;15175;48.154;11.534;2022-12-18T11:35:11;-3.20;99.90
15967;DHT22;15175;48.154;11.534;2022-12-18T11:37:40;-3.10;99.90
15967;DHT22;15175;48.154;11.534;2022-12-18T11:40:15;-3.10;99.90
15967;DHT22;15175;48.154;11.534;2022-12-18T11:42:50;-3.10;99.90
15967;DHT22;15175;48.154;11.534;2022-12-18T11:45:28;-3.10;99.90
15967;DHT22;15175;48.154;11.534;2022-12-18T11:48:04;-3.30;99.90
15967;DHT22;15175;48.154;11.534;2022-12-18T11:50:41;-3.30;99.90
15967;DHT22;15175;48.154;11.534;2022-12-18T11:53:11;-3.20;99.90
15967;DHT22;15175;48.154;11.534;2022-12-18T11:55:47;-3.10;99.90
15967;DHT22;15175;48.154;11.534;2022-12-18T11:58:25;-3.00;99.90
15967;DHT22;15175;48.154;11.534;2022-12-18T12:00:59;-2.90;99.90
15967;DHT22;15175;48.154;11.534;2022-12-18T12:04:07;-3.20;99.90
15967;DHT22;15175;48.154;11.534;2022-12-18T12:06:45;-3.30;99.90
15967;DHT22;15175;48.154;11.534;2022-12-18T12:09:19;-3.20;99.90
15967;DHT22;15175;48.154;11.534;2022-12-18T12:11:57;-3.30;99.90
15967;DHT22;15175;48.154;11.534;2022-12-18T12:14:41;-3.40;99.90
15967;DHT22;15175;48.154;11.534;2022-12-18T12:17:17;-3.40;99.90
15967;DHT22;15175;48.154;11.534;2022-12-18T12:19:51;-3.40;99.90
15967;DHT22;15175;48.154;11.534;2022-12-18T12:22:27;-3.30;99.90
15967;DHT22;15175;48.154;11.534;2022-12-18T12:25:07;-3.20;99.90
15967;DHT22;15175;48.154;11.534;2022-12-18T12:27:43;-3.10;99.90
15967;DHT22;15175;48.154;11.534;2022-12-18T12:30:18;-3.00;99.90
15967;DHT22;15175;48.154;11.534;2022-12-18T12:32:58;-3.00;99.90
15967;DHT22;15175;48.154;11.534;2022-12-18T12:35:34;-3.00;99.90
15967;DHT22;15175;48.154;11.534;2022-12-18T12:38:09;-3.00;99.90
15967;DHT22;15175;48.154;11.534;2022-12-18T12:40:41;-3.00;99.90
15967;DHT22;15175;48.154;11.534;2022-12-18T12:43:22;-2.90;99.90
15967;DHT22;15175;48.154;11.534;2022-12-18T12:45:53;-3.10;99.90
15967;DHT22;15175;48.154;11.534;2022-12-18T12:48:31;-3.10;99.90
15967;DHT22;15175;48.154;11.534;2022-12-18T12:51:01;-3.00;99.90
15967;DHT22;15175;48.154;11.534;2022-12-18T12:53:32;-3.10;99.90
15967;DHT22;15175;48.154;11.534;2022-12-18T12:56:01;-3.10;99.90
15967;DHT22;15175;48.154;11.534;2022-12-18T12:58:36;-3.20;99.90
15967;DHT22;15175;48.154;11.534;2022-12-18T13:01:14;-3.20;99.90
15967;DHT22;15175;48.154;11.534;2022-12-18T13:03:52;-3.20;99.90
15967;DHT22;15175;48.154;11.534;2022-12-18T13:06:30;-3.20;99.90
15967;DHT22;15175;48.154;11.534;2022-12-18T13:09:00;-3.20;99.90
15967;DHT22;15175;48.154;11.534;2022-12-18T13:11:31;-3.20;99.90
15967;DHT22;15175;48.154;11.534;2022-12-18T13:14:27;-3.20;99.90
15967;DHT22;15175;48.154;11.534;2022-12-18T13:17:24;-3.20;99.90
15967;DHT22;15175;48.154;11.534;2022-12-18T13:20:07;-3.10;99.90
15967;DHT22;15175;48.154;11.534;2022-12-18T13:22:37;-3.10;99.90
15967;DHT22;15175;48.154;11.534;2022-12-18T13:25:33;-3.00;99.90
15967;DHT22;15175;48.154;11.534;2022-12-18T13:28:09;-3.10;99.90
15967;DHT22;15175;48.154;11.534;2022-12-18T13:33:39;-2.90;99.90
15967;DHT22;15175;48.154;11.534;2022-12-18T13:36:16;-2.90;99.90
15967;DHT22;15175;48.154;11.534;2022-12-18T13:39:23;-2.90;99.90
15967;DHT22;15175;48.154;11.534;2022-12-18T13:41:52;-2.80;99.90
15967;DHT22;15175;48.154;11.534;2022-12-18T13:44:28;-2.80;99.90
15967;DHT22;15175;48.154;11.534;2022-12-18T13:46:59;-2.90;99.90
15967;DHT22;15175;48.154;11.534;2022-12-18T13:49:30;-2.80;99.90
15967;DHT22;15175;48.154;11.534;2022-12-18T13:52:02;-2.80;99.90
15967;DHT22;15175;48.154;11.534;2022-12-18T13:54:34;-2.90;99.90
15967;DHT22;15175;48.154;11.534;2022-12-18T13:57:02;-2.90;99.90
15967;DHT22;15175;48.154;11.534;2022-12-18T13:59:34;-2.90;99.90
15967;DHT22;15175;48.154;11.534;2022-12-18T14:02:13;-2.80;99.90
15967;DHT22;15175;48.154;11.534;2022-12-18T14:04:44;-2.90;99.90
15967;DHT22;15175;48.154;11.534;2022-12-18T14:07:14;-3.20;99.90
15967;DHT22;15175;48.154;11.534;2022-12-18T14:09:43;-3.10;99.90
15967;DHT22;15175;48.154;11.534;2022-12-18T14:12:16;-3.10;99.90
15967;DHT22;15175;48.154;11.534;2022-12-18T14:15:00;-3.20;99.90
15967;DHT22;15175;48.154;11.534;2022-12-18T14:17:30;-3.30;99.90
15967;DHT22;15175;48.154;11.534;2022-12-18T14:19:58;-3.20;99.90
15967;DHT22;15175;48.154;11.534;2022-12-18T14:22:26;-3.20;99.90
15967;DHT22;15175;48.154;11.534;2022-12-18T14:25:16;-3.20;99.90
15967;DHT22;15175;48.154;11.534;2022-12-18T14:27:46;-3.20;99.90
15967;DHT22;15175;48.154;11.534;2022-12-18T14:30:24;-3.10;99.90
15967;DHT22;15175;48.154;11.534;2022-12-18T14:33:01;-3.10;99.90
15967;DHT22;15175;48.154;11.534;2022-12-18T14:35:29;-3.10;99.90
15967;DHT22;15175;48.154;11.534;2022-12-18T14:38:10;-3.10;99.90
15967;DHT22;15175;48.154;11.534;2022-12-18T14:40:37;-3.10;99.90
15967;DHT22;15175;48.154;11.534;2022-12-18T14:43:05;-3.20;99.90
15967;DHT22;15175;48.154;11.534;2022-12-18T14:45:34;-3.20;99.90
15967;DHT22;15175;48.154;11.534;2022-12-18T14:48:06;-3.10;99.90
15967;DHT22;15175;48.154;11.534;2022-12-18T14:50:34;-3.00;99.90
15967;DHT22;15175;48.154;11.534;2022-12-18T14:53:02;-2.90;99.90
15967;DHT22;15175;48.154;11.534;2022-12-18T14:55:29;-2.80;99.90
15967;DHT22;15175;48.154;11.534;2022-12-18T14:57:56;-3.10;99.90
15967;DHT22;15175;48.154;11.534;2022-12-18T15:00:25;-3.30;99.90
15967;DHT22;15175;48.154;11.534;2022-12-18T15:02:56;-3.40;99.90
15967;DHT22;15175;48.154;11.534;2022-12-18T15:05:28;-3.40;99.90
15967;DHT22;15175;48.154;11.534;2022-12-18T15:07:56;-3.40;99.90
15967;DHT22;15175;48.154;11.534;2022-12-18T15:10:26;-3.30;99.90
15967;DHT22;15175;48.154;11.534;2022-12-18T15:13:08;-3.30;99.90
15967;DHT22;15175;48.154;11.534;2022-12-18T15:15:46;-3.20;99.90
15967;DHT22;15175;48.154;11.534;2022-12-18T15:18:15;-3.40;99.90
15967;DHT22;15175;48.154;11.534;2022-12-18T15:20:46;-3.50;99.90
15967;DHT22;15175;48.154;11.534;2022-12-18T15:23:17;-3.70;99.90
15967;DHT22;15175;48.154;11.534;2022-12-18T15:25:47;-3.60;99.90
15967;DHT22;15175;48.154;11.534;2022-12-18T15:28:19;-3.60;99.90
15967;DHT22;15175;48.154;11.534;2022-12-18T15:31:02;-3.50;99.90
15967;DHT22;15175;48.154;11.534;2022-12-18T15:33:33;-3.60;99.90
15967;DHT22;15175;48.154;11.534;2022-12-18T15:36:03;-3.60;99.90
15967;DHT22;15175;48.154;11.534;2022-12-18T15:38:31;-3.50;99.90
15967;DHT22;15175;48.154;11.534;2022-12-18T15:40:58;-3.50;99.90
15967;DHT22;15175;48.154;11.534;2022-12-18T15:43:26;-3.50;99.90